Time;durP1;ratioP1;P1;durP2;ratioP2;P2;SDS_P1;SDS_P2;PMS_P1;PMS_P2;Temp;Humidity;BMP_temperature;BMP_pressure;BME280_temperature;BME280_humidity;BME280_pressure;Samples;Min_cycle;Max_cycle;Signal;HPM_P1;HPM_P2
2021/09/16 00:01:14;;;;;;;;;;;;;;;19.26;55.57;100979.31;5115821;28;517;-53
2021/09/16 00:03:39;;;;;;;;;;;;;;;19.18;55.62;100979.09;5115135;28;735;-47
2021/09/16 00:06:05;;;;;;;;;;;;;;;19.34;55.48;100982.59;5114846;27;965;-55
2021/09/16 00:08:30;;;;;;;;;;;;;;;19.23;55.61;100970.81;5114866;28;743;-52
2021/09/16 00:10:55;;;;;;;;;;;;;;;19.29;55.50;100981.50;5115353;28;1165;-53
2021/09/16 00:13:21;;;;;;;;;;;;;;;19.40;55.03;100971.22;5134163;27;1512;-52
2021/09/16 00:15:46;;;;;;;;;;;;;;;19.39;54.82;100968.75;5135735;28;850;-51
2021/09/16 00:18:12;;;;;;;;;;;;;;;19.24;55.10;100966.94;5135812;27;1913;-45
2021/09/16 00:20:37;;;;;;;;;;;;;;;19.12;55.36;100970.84;5135673;27;1632;-55
2021/09/16 00:23:03;;;;;;;;;;;;;;;19.12;55.23;100973.63;5116809;27;894;-53
2021/09/16 00:25:28;;;;;;;;;;;;;;;19.08;55.31;100969.81;5124112;28;762;-49
2021/09/16 00:27:53;;;;;;;;;;;;;;;19.10;55.32;100975.03;5135327;28;775;-58
2021/09/16 00:30:19;;;;;;;;;;;;;;;19.13;54.73;100967.00;5136164;28;719;-55
2021/09/16 00:32:44;;;;;;;;;;;;;;;19.28;54.91;100974.34;5135818;28;774;-48
2021/09/16 00:35:10;;;;;;;;;;;;;;;19.25;56.42;100976.84;5134884;28;822;-50
2021/09/16 00:37:35;;;;;;;;;;;;;;;19.42;57.49;100974.53;5138580;27;949;-49
2021/09/16 00:40:01;;;;;;;;;;;;;;;19.81;57.87;100981.94;5150678;27;1972;-51
2021/09/16 00:42:26;;;;;;;;;;;;;;;19.89;58.80;100982.41;5135530;27;865;-54
2021/09/16 00:44:52;;;;;;;;;;;;;;;20.17;58.91;100981.56;5135988;27;790;-56
2021/09/16 00:47:17;;;;;;;;;;;;;;;20.44;59.17;100985.69;5135691;27;818;-50
2021/09/16 00:49:43;;;;;;;;;;;;;;;20.48;59.64;100983.13;5135271;27;806;-53
2021/09/16 00:52:09;;;;;;;;;;;;;;;20.55;59.84;100971.72;5124716;27;941;-53
2021/09/16 00:54:35;;;;;;;;;;;;;;;20.94;59.11;100979.78;5114962;28;794;-49
2021/09/16 00:57:00;;;;;;;;;;;;;;;21.31;58.19;100977.34;5126828;28;1025;-52
2021/09/16 00:59:26;;;;;;;;;;;;;;;20.65;59.19;100971.59;5135289;27;1917;-49
2021/09/16 01:01:51;;;;;;;;;;;;;;;20.13;57.37;100966.72;5135462;27;810;-46
2021/09/16 01:04:17;;;;;;;;;;;;;;;19.44;55.17;100961.25;5137999;27;881;-46
2021/09/16 01:06:42;;;;;;;;;;;;;;;19.03;52.23;100966.25;5138234;27;1016;-48
2021/09/16 01:09:09;;;;;;;;;;;;;;;18.62;50.10;100961.75;5138232;27;1151;-46
2021/09/16 01:11:34;;;;;;;;;;;;;;;18.43;49.31;100964.34;5138619;27;779;-51
2021/09/16 01:14:00;;;;;;;;;;;;;;;18.71;52.04;100962.81;5138817;27;786;-54
2021/09/16 01:16:25;;;;;;;;;;;;;;;19.10;54.74;100967.59;5138877;27;919;-49
2021/09/16 01:18:51;;;;;;;;;;;;;;;19.52;56.20;100962.59;5138662;27;1975;-47
2021/09/16 01:21:19;;;;;;;;;;;;;;;19.69;57.71;100964.91;5135843;27;1651;-49
2021/09/16 01:23:44;;;;;;;;;;;;;;;19.92;58.39;100963.34;5118317;28;870;-46
2021/09/16 01:26:10;;;;;;;;;;;;;;;20.06;59.31;100957.94;5117381;28;814;-47
2021/09/16 01:28:35;;;;;;;;;;;;;;;20.26;59.45;100959.66;5118136;28;858;-46
2021/09/16 01:31:01;;;;;;;;;;;;;;;20.33;59.90;100962.06;5118620;28;775;-46
2021/09/16 01:33:26;;;;;;;;;;;;;;;20.47;60.26;100959.41;5118566;28;778;-51
2021/09/16 01:35:52;;;;;;;;;;;;;;;20.60;60.49;100958.66;5117868;28;928;-50
2021/09/16 01:38:18;;;;;;;;;;;;;;;20.83;59.98;100953.41;5131723;27;1976;-51
2021/09/16 01:40:43;;;;;;;;;;;;;;;21.01;59.75;100949.84;5139033;27;754;-49
2021/09/16 01:43:09;;;;;;;;;;;;;;;20.86;60.39;100952.84;5138547;27;743;-48
2021/09/16 01:45:34;;;;;;;;;;;;;;;20.77;59.14;100949.09;5138336;27;746;-47
2021/09/16 01:47:59;;;;;;;;;;;;;;;19.99;57.13;100941.75;5138563;27;758;-53
2021/09/16 01:50:25;;;;;;;;;;;;;;;19.53;53.51;100944.94;5137207;27;885;-46
2021/09/16 01:52:50;;;;;;;;;;;;;;;19.23;50.38;100960.59;5121543;27;889;-55
2021/09/16 01:55:16;;;;;;;;;;;;;;;18.45;48.99;100945.59;5118166;28;774;-55
2021/09/16 01:57:42;;;;;;;;;;;;;;;18.42;48.16;100949.72;5117003;28;743;-45
2021/09/16 02:00:07;;;;;;;;;;;;;;;18.80;51.07;100958.38;5117765;28;1910;-46
2021/09/16 02:02:37;;;;;;;;;;;;;;;19.17;54.11;100955.41;5117824;28;624;-47
2021/09/16 02:05:03;;;;;;;;;;;;;;;19.42;56.09;100957.97;5116961;28;767;-47
2021/09/16 02:07:28;;;;;;;;;;;;;;;19.71;57.33;100951.63;5117119;27;1008;-55
2021/09/16 02:09:54;;;;;;;;;;;;;;;19.95;58.16;100945.34;5117504;28;1236;-46
2021/09/16 02:12:19;;;;;;;;;;;;;;;20.20;58.28;100947.00;5116953;28;795;-55
2021/09/16 02:14:45;;;;;;;;;;;;;;;20.17;59.24;100951.19;5116417;28;734;-47
2021/09/16 02:17:10;;;;;;;;;;;;;;;20.33;59.68;100953.78;5116878;28;553;-46
2021/09/16 02:19:36;;;;;;;;;;;;;;;20.62;59.36;100950.94;5116944;28;1909;-45
2021/09/16 02:22:01;;;;;;;;;;;;;;;20.76;59.63;100959.34;5120080;27;1826;-50
2021/09/16 02:24:27;;;;;;;;;;;;;;;20.76;59.87;100958.50;5117149;28;755;-49
2021/09/16 02:26:52;;;;;;;;;;;;;;;21.05;59.20;100954.78;5116556;28;869;-51
2021/09/16 02:29:18;;;;;;;;;;;;;;;20.86;59.08;100958.38;5117316;28;846;-46
2021/09/16 02:31:43;;;;;;;;;;;;;;;20.31;58.13;100956.00;5116787;28;770;-46
2021/09/16 02:34:08;;;;;;;;;;;;;;;19.60;56.14;100952.84;5116495;28;754;-47
2021/09/16 02:36:34;;;;;;;;;;;;;;;19.11;53.16;100957.38;5116599;27;1005;-46
2021/09/16 02:38:59;;;;;;;;;;;;;;;18.92;49.91;100951.72;5137210;27;1902;-46
2021/09/16 02:41:25;;;;;;;;;;;;;;;18.74;48.59;100964.19;5137312;27;748;-47
2021/09/16 02:43:50;;;;;;;;;;;;;;;18.45;48.88;100956.59;5137244;27;746;-47
2021/09/16 02:46:16;;;;;;;;;;;;;;;18.92;51.25;100954.47;5137396;27;869;-46
2021/09/16 02:48:41;;;;;;;;;;;;;;;19.08;54.52;100953.28;5136849;27;821;-50
2021/09/16 02:51:07;;;;;;;;;;;;;;;19.46;56.17;100944.41;5135116;27;945;-49
2021/09/16 02:53:32;;;;;;;;;;;;;;;19.65;57.80;100956.38;5116784;28;501;-48
2021/09/16 02:55:58;;;;;;;;;;;;;;;19.92;58.42;100955.06;5115881;28;866;-49
2021/09/16 02:58:23;;;;;;;;;;;;;;;20.07;59.13;100956.81;5116328;28;1975;-46
2021/09/16 03:00:49;;;;;;;;;;;;;;;20.33;59.32;100962.88;5115202;28;707;-50
2021/09/16 03:03:14;;;;;;;;;;;;;;;20.42;59.46;100954.75;5116231;28;846;-56
2021/09/16 03:05:39;;;;;;;;;;;;;;;20.68;59.26;100960.00;5116754;28;866;-54
2021/09/16 03:08:05;;;;;;;;;;;;;;;20.94;58.94;100962.38;5115868;27;969;-51
2021/09/16 03:10:30;;;;;;;;;;;;;;;20.88;59.49;100963.59;5116173;28;1154;-51
2021/09/16 03:12:56;;;;;;;;;;;;;;;20.94;59.51;100967.91;5116242;28;854;-57
2021/09/16 03:15:21;;;;;;;;;;;;;;;21.02;59.17;100973.59;5116178;28;774;-55
2021/09/16 03:17:47;;;;;;;;;;;;;;;20.58;58.83;100971.97;5116123;28;806;-52
2021/09/16 03:20:13;;;;;;;;;;;;;;;19.86;56.90;100969.19;5116469;28;1909;-59
2021/09/16 03:22:38;;;;;;;;;;;;;;;19.62;53.09;100965.25;5118626;27;1585;-64
2021/09/16 03:25:04;;;;;;;;;;;;;;;19.15;50.08;100964.78;5115589;28;751;-48
2021/09/16 03:27:29;;;;;;;;;;;;;;;18.57;48.59;100964.56;5115874;28;829;-58
2021/09/16 03:29:55;;;;;;;;;;;;;;;18.46;48.12;100970.09;5115572;28;814;-58
2021/09/16 03:32:20;;;;;;;;;;;;;;;18.59;51.67;100970.59;5115693;28;628;-61
2021/09/16 03:34:46;;;;;;;;;;;;;;;19.08;54.30;100972.56;5115951;28;766;-61
2021/09/16 03:37:11;;;;;;;;;;;;;;;19.44;55.91;100966.75;5120503;27;961;-61
2021/09/16 03:39:36;;;;;;;;;;;;;;;19.69;57.49;100973.19;5135719;27;1910;-59
2021/09/16 03:42:02;;;;;;;;;;;;;;;20.00;58.04;100972.91;5136284;27;996;-61
2021/09/16 03:44:27;;;;;;;;;;;;;;;20.07;59.33;100967.88;5136546;27;782;-60
2021/09/16 03:46:53;;;;;;;;;;;;;;;20.17;59.70;100970.53;5135791;27;849;-59
2021/09/16 03:49:19;;;;;;;;;;;;;;;20.66;58.94;100982.38;5136899;27;1508;-60
2021/09/16 03:51:44;;;;;;;;;;;;;;;20.65;59.66;100999.22;5138200;27;881;-57
2021/09/16 03:54:10;;;;;;;;;;;;;;;21.10;58.85;101015.53;5136163;27;802;-62
2021/09/16 03:56:35;;;;;;;;;;;;;;;20.98;59.75;101014.00;5135409;27;865;-59
2021/09/16 03:59:01;;;;;;;;;;;;;;;21.43;58.80;101010.84;5136388;27;1918;-56
2021/09/16 04:01:26;;;;;;;;;;;;;;;21.08;59.50;101004.75;5135717;27;762;-61
2021/09/16 04:03:51;;;;;;;;;;;;;;;20.66;58.44;101009.16;5135357;28;950;-62
2021/09/16 04:06:17;;;;;;;;;;;;;;;20.02;55.78;101006.59;5132069;27;902;-63
2021/09/16 04:08:45;;;;;;;;;;;;;;;19.45;52.58;101007.03;5115501;28;743;-63
2021/09/16 04:11:10;;;;;;;;;;;;;;;19.08;49.85;101008.41;5114755;28;998;-54
2021/09/16 04:13:38;;;;;;;;;;;;;;;18.63;47.87;101007.47;5115202;28;819;-55
2021/09/16 04:16:04;;;;;;;;;;;;;;;18.40;47.81;100998.75;5115286;28;818;-62
2021/09/16 04:18:29;;;;;;;;;;;;;;;18.74;50.83;101006.31;5134247;27;1989;-51
2021/09/16 04:20:55;;;;;;;;;;;;;;;19.11;53.82;100993.19;5135698;27;1550;-50
2021/09/16 04:23:21;;;;;;;;;;;;;;;19.22;56.61;100992.00;5115501;28;763;-55
2021/09/16 04:25:46;;;;;;;;;;;;;;;19.56;57.78;100984.88;5127880;27;827;-60
2021/09/16 04:28:12;;;;;;;;;;;;;;;19.83;58.53;100979.69;5156583;27;699;-52
2021/09/16 04:30:37;;;;;;;;;;;;;;;20.04;58.93;100973.97;5156459;27;874;-61
2021/09/16 04:33:03;;;;;;;;;;;;;;;20.27;59.16;100972.34;5155736;27;905;-46
2021/09/16 04:35:28;;;;;;;;;;;;;;;20.53;58.91;100974.78;5156812;27;897;-50
2021/09/16 04:37:54;;;;;;;;;;;;;;;20.84;58.60;100978.00;5132657;27;960;-55
2021/09/16 04:40:19;;;;;;;;;;;;;;;20.80;59.16;100984.41;5139784;27;1909;-59
2021/09/16 04:42:45;;;;;;;;;;;;;;;20.77;59.53;100983.06;5139285;27;750;-60
2021/09/16 04:45:10;;;;;;;;;;;;;;;21.20;58.45;100983.00;5139549;27;805;-59
2021/09/16 04:47:39;;;;;;;;;;;;;;;20.73;59.77;100990.31;5139063;27;829;-45
2021/09/16 04:50:06;;;;;;;;;;;;;;;20.60;59.04;100986.31;5139194;27;747;-55
2021/09/16 04:52:34;;;;;;;;;;;;;;;20.08;56.80;100979.75;5122671;27;1324;-60
2021/09/16 04:55:00;;;;;;;;;;;;;;;19.55;54.10;100974.97;5118883;28;862;-58
2021/09/16 04:57:25;;;;;;;;;;;;;;;19.13;51.31;100978.03;5118779;27;805;-58
2021/09/16 04:59:53;;;;;;;;;;;;;;;18.54;49.52;100984.41;5118648;28;1909;-57
2021/09/16 05:02:19;;;;;;;;;;;;;;;18.59;48.38;100995.38;5118222;28;726;-58
2021/09/16 05:04:44;;;;;;;;;;;;;;;18.59;51.11;100995.38;5141798;27;893;-57
2021/09/16 05:07:09;;;;;;;;;;;;;;;19.15;53.81;100997.88;5137998;27;952;-56
2021/09/16 05:09:35;;;;;;;;;;;;;;;19.25;56.59;101002.50;5118342;28;1022;-60
2021/09/16 05:12:00;;;;;;;;;;;;;;;19.63;57.41;100994.47;5118456;28;763;-54
2021/09/16 05:14:26;;;;;;;;;;;;;;;19.95;58.10;100992.28;5118057;28;830;-60
2021/09/16 05:16:52;;;;;;;;;;;;;;;20.24;58.17;100994.19;5123440;27;849;-55
2021/09/16 05:19:18;;;;;;;;;;;;;;;20.33;58.84;100997.97;5139261;27;1933;-62
2021/09/16 05:21:45;;;;;;;;;;;;;;;20.31;59.57;101002.94;5131627;27;1549;-45
2021/09/16 05:24:16;;;;;;;;;;;;;;;20.70;58.97;101009.44;5117582;27;790;-60
2021/09/16 05:26:42;;;;;;;;;;;;;;;20.40;60.58;101017.75;5118269;28;807;-58
2021/09/16 05:29:08;;;;;;;;;;;;;;;20.91;59.49;101018.28;5119494;27;981;-49
2021/09/16 05:31:33;;;;;;;;;;;;;;;20.87;59.85;101020.81;5138529;27;834;-55
2021/09/16 05:33:58;;;;;;;;;;;;;;;20.74;59.71;101008.53;5138511;27;805;-47
2021/09/16 05:36:27;;;;;;;;;;;;;;;20.42;57.99;101006.41;5134462;27;961;-51
2021/09/16 05:38:52;;;;;;;;;;;;;;;20.03;54.52;101002.69;5137048;27;1918;-55
2021/09/16 05:41:18;;;;;;;;;;;;;;;19.27;52.36;101008.53;5138799;27;813;-49
2021/09/16 05:43:43;;;;;;;;;;;;;;;18.93;49.90;101002.97;5137201;27;877;-52
2021/09/16 05:46:09;;;;;;;;;;;;;;;18.67;47.51;101014.06;5138115;27;783;-49
2021/09/16 05:48:34;;;;;;;;;;;;;;;18.24;48.67;101013.66;5138066;27;794;-54
2021/09/16 05:50:59;;;;;;;;;;;;;;;18.76;52.07;101020.66;5136769;27;1069;-57
2021/09/16 05:53:25;;;;;;;;;;;;;;;19.26;54.19;101025.38;5117427;28;755;-54
2021/09/16 05:55:50;;;;;;;;;;;;;;;19.43;56.51;101031.31;5128351;27;854;-55
2021/09/16 05:58:16;;;;;;;;;;;;;;;19.52;58.08;101028.78;5138408;27;818;-55
2021/09/16 06:00:41;;;;;;;;;;;;;;;19.86;58.32;101027.16;5137544;27;1978;-47
2021/09/16 06:03:07;;;;;;;;;;;;;;;20.20;58.34;101035.34;5138324;27;738;-53
2021/09/16 06:05:32;;;;;;;;;;;;;;;20.12;59.54;101047.88;5137711;27;873;-59
2021/09/16 06:07:58;;;;;;;;;;;;;;;20.41;59.25;101047.03;5130983;27;960;-48
2021/09/16 06:10:23;;;;;;;;;;;;;;;20.45;59.66;101044.50;5158946;27;1052;-56
2021/09/16 06:12:49;;;;;;;;;;;;;;;20.68;59.50;101043.69;5158796;27;774;-56
2021/09/16 06:15:14;;;;;;;;;;;;;;;20.70;59.49;101054.47;5157955;27;750;-54
2021/09/16 06:17:40;;;;;;;;;;;;;;;21.12;58.52;101046.47;5158332;27;834;-52
2021/09/16 06:20:05;;;;;;;;;;;;;;;20.93;59.49;101041.75;5157109;27;1992;-58
2021/09/16 06:22:31;;;;;;;;;;;;;;;20.86;58.96;101046.81;5123856;27;1544;-57
2021/09/16 06:24:56;;;;;;;;;;;;;;;20.32;57.51;101051.53;5116708;28;755;-52
2021/09/16 06:27:22;;;;;;;;;;;;;;;19.71;55.04;101048.19;5116944;28;849;-54
2021/09/16 06:29:47;;;;;;;;;;;;;;;19.36;52.08;101057.56;5116604;27;813;-57
2021/09/16 06:32:13;;;;;;;;;;;;;;;18.82;49.54;101054.50;5116986;27;785;-59
2021/09/16 06:34:38;;;;;;;;;;;;;;;18.33;48.42;101050.53;5130893;27;819;-49
2021/09/16 06:37:04;;;;;;;;;;;;;;;18.17;47.03;101049.72;5130545;27;999;-50
2021/09/16 06:39:29;;;;;;;;;;;;;;;18.41;48.57;101049.97;5137338;27;2004;-56
2021/09/16 06:41:55;;;;;;;;;;;;;;;18.79;52.98;101052.31;5137324;27;799;-57
2021/09/16 06:44:20;;;;;;;;;;;;;;;19.33;54.75;101064.47;5137237;27;794;-57
2021/09/16 06:46:46;;;;;;;;;;;;;;;19.43;56.81;101058.91;5135349;27;827;-57
2021/09/16 06:49:11;;;;;;;;;;;;;;;19.63;58.03;101055.16;5136955;27;734;-56
2021/09/16 06:51:37;;;;;;;;;;;;;;;20.03;58.07;101059.84;5130815;27;1036;-55
2021/09/16 06:54:02;;;;;;;;;;;;;;;19.96;59.14;101072.06;5116227;28;755;-48
2021/09/16 06:56:28;;;;;;;;;;;;;;;20.16;59.26;101068.28;5116042;28;849;-58
2021/09/16 06:58:53;;;;;;;;;;;;;;;20.29;59.27;101066.75;5119426;27;1998;-55
2021/09/16 07:01:19;;;;;;;;;;;;;;;20.56;59.13;101075.59;5136177;27;810;-54
2021/09/16 07:03:46;;;;;;;;;;;;;;;20.89;58.53;101076.63;5136844;27;782;-53
2021/09/16 07:06:12;;;;;;;;;;;;;;;20.84;59.04;101083.00;5133566;27;944;-50
2021/09/16 07:08:37;;;;;;;;;;;;;;;20.84;59.41;101080.25;5116072;28;832;-56
2021/09/16 07:11:03;;;;;;;;;;;;;;;20.82;59.62;101073.41;5115971;28;1015;-54
2021/09/16 07:13:28;;;;;;;;;;;;;;;20.78;58.75;101073.16;5154147;27;878;-48
2021/09/16 07:15:54;;;;;;;;;;;;;;;20.14;56.77;101073.25;5156593;27;794;-50
2021/09/16 07:18:19;;;;;;;;;;;;;;;19.52;54.60;101086.69;5157324;27;838;-51
2021/09/16 07:20:45;;;;;;;;;;;;;;;19.06;52.54;101075.94;5155689;27;1902;-52
2021/09/16 07:23:10;;;;;;;;;;;;;;;19.09;50.07;101078.94;5116844;27;1004;-58
2021/09/16 07:25:36;;;;;;;;;;;;;;;18.93;48.07;101071.88;5129014;27;886;-57
2021/09/16 07:28:01;;;;;;;;;;;;;;;18.72;49.50;101074.66;5136162;27;774;-56
2021/09/16 07:30:26;;;;;;;;;;;;;;;18.82;52.27;101071.03;5136059;27;913;-48
2021/09/16 07:32:52;;;;;;;;;;;;;;;19.37;54.39;101073.81;5136662;27;759;-50
2021/09/16 07:35:17;;;;;;;;;;;;;;;19.67;56.60;101069.22;5136907;27;920;-53
2021/09/16 07:37:43;;;;;;;;;;;;;;;19.90;57.73;101078.72;5127550;27;965;-59
2021/09/16 07:40:12;;;;;;;;;;;;;;;19.94;58.69;101073.44;5135976;27;1909;-47
2021/09/16 07:42:37;;;;;;;;;;;;;;;20.18;58.95;101081.78;5150881;27;831;-49
2021/09/16 07:45:03;;;;;;;;;;;;;;;20.56;58.60;101087.47;5156823;27;758;-58
2021/09/16 07:47:28;;;;;;;;;;;;;;;20.39;59.84;101079.63;5156924;27;825;-57
2021/09/16 07:49:54;;;;;;;;;;;;;;;20.61;59.66;101075.56;5153250;27;889;-56
2021/09/16 07:52:19;;;;;;;;;;;;;;;20.63;59.66;101067.78;5124001;27;1019;-58
2021/09/16 07:54:45;;;;;;;;;;;;;;;20.52;58.49;101073.44;5115542;28;766;-48
2021/09/16 07:57:10;;;;;;;;;;;;;;;20.11;56.21;101071.06;5115314;28;801;-59
2021/09/16 07:59:36;;;;;;;;;;;;;;;19.55;53.75;101074.28;5114681;28;1897;-59
2021/09/16 08:02:04;;;;;;;;;;;;;;;19.05;51.72;101075.09;5115571;28;847;-58
2021/09/16 08:04:30;;;;;;;;;;;;;;;18.85;49.91;101062.22;5132089;27;815;-55
2021/09/16 08:06:55;;;;;;;;;;;;;;;18.33;48.83;101078.06;5126235;27;929;-57
2021/09/16 08:09:21;;;;;;;;;;;;;;;18.69;50.77;101075.22;5115213;28;1027;-48
2021/09/16 08:11:47;;;;;;;;;;;;;;;19.25;53.73;101087.13;5116653;28;762;-53
2021/09/16 08:14:13;;;;;;;;;;;;;;;19.62;55.82;101083.03;5119943;27;855;-57
2021/09/16 08:16:38;;;;;;;;;;;;;;;19.64;57.71;101078.03;5131440;27;827;-58
2021/09/16 08:19:07;;;;;;;;;;;;;;;19.95;58.44;101073.16;5139625;27;1905;-57
2021/09/16 08:21:32;;;;;;;;;;;;;;;20.10;59.07;101065.84;5134199;27;1568;-50
2021/09/16 08:23:58;;;;;;;;;;;;;;;20.53;58.36;101074.25;5119422;28;868;-58
2021/09/16 08:26:23;;;;;;;;;;;;;;;20.53;59.16;101068.72;5119499;28;775;-54
2021/09/16 08:28:51;;;;;;;;;;;;;;;20.75;58.84;101070.97;5133299;27;902;-54
2021/09/16 08:31:19;;;;;;;;;;;;;;;20.74;59.33;101069.34;5160571;27;838;-46
2021/09/16 08:33:45;;;;;;;;;;;;;;;20.93;59.14;101063.84;5160690;27;762;-52
2021/09/16 08:36:10;;;;;;;;;;;;;;;20.95;58.91;101053.31;5155243;27;1015;-56
2021/09/16 08:38:36;;;;;;;;;;;;;;;20.90;57.86;101056.16;5133518;27;1989;-51
2021/09/16 08:41:01;;;;;;;;;;;;;;;20.20;55.68;101064.91;5140820;27;815;-56
2021/09/16 08:43:28;;;;;;;;;;;;;;;19.67;53.32;101059.00;5160592;27;751;-56
2021/09/16 08:45:54;;;;;;;;;;;;;;;19.08;51.50;101052.50;5160253;27;790;-56
2021/09/16 08:48:22;;;;;;;;;;;;;;;18.85;48.91;101056.69;5160271;27;790;-50
2021/09/16 08:50:49;;;;;;;;;;;;;;;18.46;48.71;101044.44;5144037;27;766;-57
2021/09/16 08:53:19;;;;;;;;;;;;;;;18.76;51.22;101048.19;5136901;27;948;-57
2021/09/16 08:55:45;;;;;;;;;;;;;;;19.39;54.52;101054.22;5136776;27;820;-56
2021/09/16 08:58:10;;;;;;;;;;;;;;;19.71;57.15;101053.72;5137858;27;846;-51
2021/09/16 09:00:36;;;;;;;;;;;;;;;20.10;58.08;101049.28;5139149;27;1972;-59
2021/09/16 09:03:01;;;;;;;;;;;;;;;20.35;58.92;101049.00;5138885;27;739;-55
2021/09/16 09:05:29;;;;;;;;;;;;;;;20.63;58.91;101046.47;5138905;27;842;-58
2021/09/16 09:07:55;;;;;;;;;;;;;;;20.60;59.84;101049.03;5134548;27;1004;-59
2021/09/16 09:10:39;;;;;;;;;;;;;;;20.89;59.08;101042.59;5138950;27;1185;-53
2021/09/16 09:13:05;;;;;;;;;;;;;;;21.40;57.99;101047.44;5138877;27;818;-56
2021/09/16 09:15:32;;;;;;;;;;;;;;;21.16;58.54;101045.56;5139081;27;857;-57
2021/09/16 09:18:06;;;;;;;;;;;;;;;20.46;57.71;101046.16;5138637;27;738;-54
2021/09/16 09:20:32;;;;;;;;;;;;;;;19.86;55.32;101043.72;5137481;27;1970;-54
2021/09/16 09:22:58;;;;;;;;;;;;;;;19.58;52.52;101038.66;5117794;27;984;-58
2021/09/16 09:25:25;;;;;;;;;;;;;;;19.33;50.06;101036.91;5118178;28;753;-57
2021/09/16 09:27:51;;;;;;;;;;;;;;;18.87;48.58;101028.84;5117789;28;929;-59
2021/09/16 09:30:25;;;;;;;;;;;;;;;18.61;47.67;101032.53;5117913;28;846;-58
2021/09/16 09:33:00;;;;;;;;;;;;;;;18.72;50.70;101030.59;5125663;27;824;-48
2021/09/16 09:35:28;;;;;;;;;;;;;;;19.33;54.88;101031.38;5138423;27;758;-58
2021/09/16 09:37:54;;;;;;;;;;;;;;;19.75;57.18;101027.19;5132066;27;945;-50
2021/09/16 09:40:26;;;;;;;;;;;;;;;20.00;58.76;101023.41;5138642;27;2287;-58
2021/09/16 09:42:52;;;;;;;;;;;;;;;20.35;59.02;101026.09;5137886;27;881;-59
2021/09/16 09:45:17;;;;;;;;;;;;;;;20.55;59.49;101027.78;5137301;27;983;-50
2021/09/16 09:47:42;;;;;;;;;;;;;;;20.79;59.22;101027.81;5138615;27;743;-55
2021/09/16 09:50:18;;;;;;;;;;;;;;;20.84;59.38;101024.16;5137766;27;797;-58
2021/09/16 09:52:44;;;;;;;;;;;;;;;20.88;59.65;101024.41;5122307;27;960;-55
2021/09/16 09:55:16;;;;;;;;;;;;;;;21.09;58.72;101025.75;5117944;28;783;-58
2021/09/16 09:57:41;;;;;;;;;;;;;;;20.59;57.98;101017.81;5118744;27;831;-58
2021/09/16 10:00:16;;;;;;;;;;;;;;;19.87;56.54;101010.31;5137786;27;1972;-57
2021/09/16 10:02:43;;;;;;;;;;;;;;;19.43;53.69;101017.53;5138007;27;742;-51
2021/09/16 10:05:18;;;;;;;;;;;;;;;19.18;51.01;101012.19;5137560;27;814;-55
2021/09/16 10:07:44;;;;;;;;;;;;;;;18.67;49.36;101019.56;5122609;27;949;-57
2021/09/16 10:10:10;;;;;;;;;;;;;;;18.31;48.48;101011.44;5117212;28;1184;-52
2021/09/16 10:12:35;;;;;;;;;;;;;;;18.43;48.63;101003.69;5135798;27;867;-57
2021/09/16 10:15:03;;;;;;;;;;;;;;;18.94;52.70;101008.19;5138052;27;826;-52
2021/09/16 10:17:28;;;;;;;;;;;;;;;19.37;56.28;101009.59;5137806;27;789;-59
2021/09/16 10:19:54;;;;;;;;;;;;;;;19.83;57.71;101010.03;5137184;27;1981;-56
2021/09/16 10:22:19;;;;;;;;;;;;;;;20.00;59.04;101006.84;5128415;27;1655;-51
2021/09/16 10:24:46;;;;;;;;;;;;;;;20.48;58.91;101000.56;5135775;27;835;-47
2021/09/16 10:27:27;;;;;;;;;;;;;;;20.68;59.13;101001.44;5137492;27;810;-56
2021/09/16 10:29:53;;;;;;;;;;;;;;;20.99;58.86;100998.25;5136714;27;815;-56
2021/09/16 10:32:21;;;;;;;;;;;;;;;21.02;59.07;101005.94;5137152;27;822;-62
2021/09/16 10:34:47;;;;;;;;;;;;;;;20.72;59.43;100994.22;5136723;27;864;-58
2021/09/16 10:37:17;;;;;;;;;;;;;;;20.26;57.26;100990.03;5127719;27;953;-48
2021/09/16 10:39:43;;;;;;;;;;;;;;;19.78;54.96;100984.41;5137095;27;1925;-53
2021/09/16 10:42:09;;;;;;;;;;;;;;;19.36;52.45;100986.69;5136871;27;846;-53
2021/09/16 10:44:34;;;;;;;;;;;;;;;19.00;50.40;100989.72;5137558;27;795;-58
2021/09/16 10:47:16;;;;;;;;;;;;;;;18.59;49.44;100987.97;5137123;27;818;-47
2021/09/16 10:49:41;;;;;;;;;;;;;;;18.18;48.21;100990.84;5135776;27;835;-45
2021/09/16 10:52:10;;;;;;;;;;;;;;;18.34;48.82;100988.88;5126563;27;973;-56
2021/09/16 10:54:57;;;;;;;;;;;;;;;18.83;52.07;100983.69;5116112;28;842;-54
2021/09/16 10:57:29;;;;;;;;;;;;;;;19.24;55.27;100981.53;5116457;27;838;-47
2021/09/16 10:59:54;;;;;;;;;;;;;;;19.54;57.45;100981.59;5116062;28;1913;-57
2021/09/16 11:02:22;;;;;;;;;;;;;;;19.81;58.29;100981.09;5123894;27;812;-54
2021/09/16 11:04:54;;;;;;;;;;;;;;;20.10;58.88;100981.06;5136539;27;797;-50
2021/09/16 11:07:32;;;;;;;;;;;;;;;20.30;59.33;100970.91;5124423;27;1064;-55
2021/09/16 11:10:15;;;;;;;;;;;;;;;20.37;60.03;100981.63;5115925;28;1165;-55
2021/09/16 11:12:47;;;;;;;;;;;;;;;20.58;59.92;100977.50;5115815;28;770;-54
2021/09/16 11:15:13;;;;;;;;;;;;;;;20.63;60.16;100982.13;5123710;27;838;-52
2021/09/16 11:17:39;;;;;;;;;;;;;;;20.57;60.47;100975.84;5136777;27;798;-57
2021/09/16 11:20:06;;;;;;;;;;;;;;;20.34;58.62;100969.22;5136487;27;1913;-57
2021/09/16 11:22:31;;;;;;;;;;;;;;;19.99;55.96;100966.59;5122322;27;1600;-57
2021/09/16 11:24:57;;;;;;;;;;;;;;;19.62;53.32;100972.69;5116144;28;763;-49
2021/09/16 11:27:32;;;;;;;;;;;;;;;19.52;50.22;100968.09;5121703;27;827;-59
2021/09/16 11:29:58;;;;;;;;;;;;;;;18.76;49.92;100957.28;5156712;27;815;-59
2021/09/16 11:32:34;;;;;;;;;;;;;;;18.57;49.36;100967.31;5157619;27;766;-54
2021/09/16 11:35:00;;;;;;;;;;;;;;;18.38;49.88;100967.91;5156152;27;770;-60
2021/09/16 11:37:31;;;;;;;;;;;;;;;18.74;50.04;100950.41;5136521;27;965;-51
2021/09/16 11:39:58;;;;;;;;;;;;;;;18.97;53.53;100962.69;5134899;27;2006;-57
2021/09/16 11:42:23;;;;;;;;;;;;;;;19.36;55.68;100958.28;5135766;27;799;-55
2021/09/16 11:44:55;;;;;;;;;;;;;;;19.56;57.57;100954.53;5135718;27;763;-54
2021/09/16 11:47:21;;;;;;;;;;;;;;;19.78;58.50;100954.06;5136191;27;758;-50
2021/09/16 11:49:46;;;;;;;;;;;;;;;20.13;58.53;100944.63;5135798;27;730;-56
2021/09/16 11:52:11;;;;;;;;;;;;;;;20.34;58.81;100950.72;5125223;27;1003;-51
2021/09/16 11:54:37;;;;;;;;;;;;;;;20.43;59.39;100947.31;5131399;27;828;-55
2021/09/16 11:57:02;;;;;;;;;;;;;;;20.49;59.66;100946.13;5135315;27;849;-50
2021/09/16 11:59:28;;;;;;;;;;;;;;;20.69;59.75;100950.56;5136123;27;1977;-51
2021/09/16 12:01:54;;;;;;;;;;;;;;;20.72;59.23;100944.47;5135836;27;746;-57
2021/09/16 12:04:20;;;;;;;;;;;;;;;20.27;58.29;100930.09;5135303;27;773;-47
2021/09/16 12:06:49;;;;;;;;;;;;;;;19.68;56.15;100927.38;5131334;27;811;-48
2021/09/16 12:09:18;;;;;;;;;;;;;;;19.30;53.62;100928.00;5114067;28;1296;-58
2021/09/16 12:11:45;;;;;;;;;;;;;;;18.90;51.48;100923.63;5113494;28;817;-49
2021/09/16 12:14:10;;;;;;;;;;;;;;;18.86;49.43;100925.25;5113917;28;831;-59
2021/09/16 12:16:37;;;;;;;;;;;;;;;18.30;50.05;100918.97;5114744;28;821;-53
2021/09/16 12:19:07;;;;;;;;;;;;;;;18.66;51.94;100917.97;5121889;27;1983;-54
2021/09/16 12:21:36;;;;;;;;;;;;;;;19.27;55.37;100911.22;5134027;28;1498;-51
2021/09/16 12:24:05;;;;;;;;;;;;;;;19.97;56.62;100912.78;5134421;27;885;-58
2021/09/16 12:26:30;;;;;;;;;;;;;;;20.08;58.28;100914.31;5135141;27;822;-57
2021/09/16 12:28:59;;;;;;;;;;;;;;;20.48;58.27;100920.44;5135876;27;858;-51
2021/09/16 12:31:26;;;;;;;;;;;;;;;20.65;58.89;100916.31;5138439;27;894;-57
2021/09/16 12:33:56;;;;;;;;;;;;;;;20.72;59.03;100908.53;5156112;27;774;-57
2021/09/16 12:36:21;;;;;;;;;;;;;;;20.94;58.80;100907.09;5147845;27;960;-58
2021/09/16 12:39:13;;;;;;;;;;;;;;;20.89;59.18;100905.25;5132213;28;1980;-58
2021/09/16 12:41:48;;;;;;;;;;;;;;;20.57;58.38;100909.53;5132277;27;1699;-55
2021/09/16 12:44:23;;;;;;;;;;;;;;;20.12;55.80;100898.78;5134123;27;870;-58
2021/09/16 12:46:48;;;;;;;;;;;;;;;19.60;53.68;100901.28;5135439;27;727;-57
2021/09/16 12:49:20;;;;;;;;;;;;;;;19.11;51.60;100897.56;5135950;27;739;-51
2021/09/16 12:51:46;;;;;;;;;;;;;;;18.61;50.20;100892.09;5127823;27;992;-45